sensor_id;sensor_type;location;lat;lon;timestamp;P1;durP1;ratioP1;P2;durP2;ratioP2
21780;SDS011;52576;53.614;9.894;2022-12-18T00:00:42;29.90;;;14.35;;
21780;SDS011;52576;53.614;9.894;2022-12-18T00:01:48;31.23;;;14.52;;
21780;SDS011;52576;53.614;9.894;2022-12-18T00:02:51;29.88;;;14.30;;
21780;SDS011;52576;53.614;9.894;2022-12-18T00:03:55;27.00;;;14.27;;
21780;SDS011;52576;53.614;9.894;2022-12-18T00:05:00;28.38;;;14.43;;
21780;SDS011;52576;53.614;9.894;2022-12-18T00:06:04;31.67;;;14.07;;
21780;SDS011;52576;53.614;9.894;2022-12-18T00:07:06;27.05;;;13.70;;
21780;SDS011;52576;53.614;9.894;2022-12-18T00:08:09;34.70;;;14.85;;
21780;SDS011;52576;53.614;9.894;2022-12-18T00:09:11;26.92;;;13.88;;
21780;SDS011;52576;53.614;9.894;2022-12-18T00:10:16;26.27;;;14.75;;
21780;SDS011;52576;53.614;9.894;2022-12-18T00:11:19;31.25;;;13.90;;
21780;SDS011;52576;53.614;9.894;2022-12-18T00:12:24;29.77;;;14.15;;
21780;SDS011;52576;53.614;9.894;2022-12-18T00:13:27;28.95;;;14.25;;
21780;SDS011;52576;53.614;9.894;2022-12-18T00:14:30;27.83;;;14.25;;
21780;SDS011;52576;53.614;9.894;2022-12-18T00:15:33;27.90;;;13.80;;
21780;SDS011;52576;53.614;9.894;2022-12-18T00:16:36;29.98;;;13.77;;
21780;SDS011;52576;53.614;9.894;2022-12-18T00:17:38;31.88;;;14.70;;
21780;SDS011;52576;53.614;9.894;2022-12-18T00:18:42;27.58;;;13.65;;
21780;SDS011;52576;53.614;9.894;2022-12-18T00:19:44;30.40;;;14.05;;
21780;SDS011;52576;53.614;9.894;2022-12-18T00:20:47;35.03;;;15.45;;
21780;SDS011;52576;53.614;9.894;2022-12-18T00:21:49;30.55;;;14.88;;
21780;SDS011;52576;53.614;9.894;2022-12-18T00:22:53;28.05;;;13.93;;
21780;SDS011;52576;53.614;9.894;2022-12-18T00:23:55;31.42;;;14.02;;
21780;SDS011;52576;53.614;9.894;2022-12-18T00:24:59;28.65;;;14.30;;
21780;SDS011;52576;53.614;9.894;2022-12-18T00:26:06;27.88;;;14.27;;
21780;SDS011;52576;53.614;9.894;2022-12-18T00:27:10;27.40;;;14.75;;
21780;SDS011;52576;53.614;9.894;2022-12-18T00:28:12;26.00;;;13.52;;
21780;SDS011;52576;53.614;9.894;2022-12-18T00:29:16;26.92;;;14.02;;
21780;SDS011;52576;53.614;9.894;2022-12-18T00:30:18;28.95;;;14.18;;
21780;SDS011;52576;53.614;9.894;2022-12-18T00:31:22;29.15;;;14.30;;
21780;SDS011;52576;53.614;9.894;2022-12-18T00:32:27;29.25;;;14.00;;
21780;SDS011;52576;53.614;9.894;2022-12-18T00:33:30;26.67;;;13.57;;
21780;SDS011;52576;53.614;9.894;2022-12-18T00:34:33;25.30;;;14.05;;
21780;SDS011;52576;53.614;9.894;2022-12-18T00:35:36;28.40;;;14.07;;
21780;SDS011;52576;53.614;9.894;2022-12-18T00:36:38;28.45;;;15.43;;
21780;SDS011;52576;53.614;9.894;2022-12-18T00:37:43;26.65;;;14.07;;
21780;SDS011;52576;53.614;9.894;2022-12-18T00:38:45;27.27;;;13.95;;
21780;SDS011;52576;53.614;9.894;2022-12-18T00:39:52;31.65;;;14.65;;
21780;SDS011;52576;53.614;9.894;2022-12-18T00:40:54;31.95;;;14.38;;
21780;SDS011;52576;53.614;9.894;2022-12-18T00:41:58;27.55;;;14.77;;
21780;SDS011;52576;53.614;9.894;2022-12-18T00:43:19;26.00;;;14.05;;
21780;SDS011;52576;53.614;9.894;2022-12-18T00:44:22;28.98;;;14.30;;
21780;SDS011;52576;53.614;9.894;2022-12-18T00:45:25;25.23;;;14.45;;
21780;SDS011;52576;53.614;9.894;2022-12-18T00:46:28;24.88;;;13.93;;
21780;SDS011;52576;53.614;9.894;2022-12-18T00:47:32;29.17;;;14.43;;
21780;SDS011;52576;53.614;9.894;2022-12-18T00:48:34;27.88;;;14.20;;
21780;SDS011;52576;53.614;9.894;2022-12-18T00:49:37;32.60;;;14.73;;
21780;SDS011;52576;53.614;9.894;2022-12-18T00:50:39;28.20;;;14.82;;
21780;SDS011;52576;53.614;9.894;2022-12-18T00:51:43;25.00;;;13.60;;
21780;SDS011;52576;53.614;9.894;2022-12-18T00:52:45;26.77;;;13.73;;
21780;SDS011;52576;53.614;9.894;2022-12-18T00:53:48;26.55;;;14.20;;
21780;SDS011;52576;53.614;9.894;2022-12-18T00:54:50;25.45;;;13.35;;
21780;SDS011;52576;53.614;9.894;2022-12-18T00:55:53;26.40;;;13.55;;
21780;SDS011;52576;53.614;9.894;2022-12-18T00:56:55;29.98;;;13.77;;
21780;SDS011;52576;53.614;9.894;2022-12-18T00:58:00;30.40;;;13.85;;
21780;SDS011;52576;53.614;9.894;2022-12-18T00:59:02;25.48;;;13.70;;
21780;SDS011;52576;53.614;9.894;2022-12-18T01:00:06;28.50;;;13.30;;
21780;SDS011;52576;53.614;9.894;2022-12-18T01:01:09;25.27;;;13.15;;
21780;SDS011;52576;53.614;9.894;2022-12-18T01:02:13;27.35;;;14.25;;
21780;SDS011;52576;53.614;9.894;2022-12-18T01:03:17;26.10;;;13.25;;
21780;SDS011;52576;53.614;9.894;2022-12-18T01:04:20;33.17;;;14.65;;
21780;SDS011;52576;53.614;9.894;2022-12-18T01:05:22;25.42;;;13.38;;
21780;SDS011;52576;53.614;9.894;2022-12-18T01:06:27;28.15;;;13.65;;
21780;SDS011;52576;53.614;9.894;2022-12-18T01:07:29;26.65;;;14.13;;
21780;SDS011;52576;53.614;9.894;2022-12-18T01:08:33;28.98;;;14.20;;
21780;SDS011;52576;53.614;9.894;2022-12-18T01:09:36;22.50;;;12.48;;
21780;SDS011;52576;53.614;9.894;2022-12-18T01:10:40;30.17;;;13.63;;
21780;SDS011;52576;53.614;9.894;2022-12-18T01:11:42;28.23;;;13.88;;
21780;SDS011;52576;53.614;9.894;2022-12-18T01:12:46;27.95;;;13.68;;
21780;SDS011;52576;53.614;9.894;2022-12-18T01:13:49;24.80;;;12.93;;
21780;SDS011;52576;53.614;9.894;2022-12-18T01:14:56;29.80;;;13.93;;
21780;SDS011;52576;53.614;9.894;2022-12-18T01:15:59;35.00;;;13.18;;
21780;SDS011;52576;53.614;9.894;2022-12-18T01:17:03;22.98;;;12.85;;
21780;SDS011;52576;53.614;9.894;2022-12-18T01:18:07;28.15;;;13.73;;
21780;SDS011;52576;53.614;9.894;2022-12-18T01:19:09;31.02;;;13.27;;
21780;SDS011;52576;53.614;9.894;2022-12-18T01:20:13;27.55;;;13.82;;
21780;SDS011;52576;53.614;9.894;2022-12-18T01:21:15;31.55;;;14.20;;
21780;SDS011;52576;53.614;9.894;2022-12-18T01:22:19;25.92;;;13.40;;
21780;SDS011;52576;53.614;9.894;2022-12-18T01:23:21;23.60;;;13.07;;
21780;SDS011;52576;53.614;9.894;2022-12-18T01:24:24;30.60;;;13.98;;
21780;SDS011;52576;53.614;9.894;2022-12-18T01:25:26;31.02;;;13.55;;
21780;SDS011;52576;53.614;9.894;2022-12-18T01:26:29;28.30;;;14.18;;
21780;SDS011;52576;53.614;9.894;2022-12-18T01:27:32;26.77;;;13.85;;
21780;SDS011;52576;53.614;9.894;2022-12-18T01:28:37;26.42;;;13.10;;
21780;SDS011;52576;53.614;9.894;2022-12-18T01:29:43;26.17;;;13.20;;
21780;SDS011;52576;53.614;9.894;2022-12-18T01:30:46;24.95;;;13.40;;
21780;SDS011;52576;53.614;9.894;2022-12-18T01:31:48;27.73;;;13.82;;
21780;SDS011;52576;53.614;9.894;2022-12-18T01:32:51;26.63;;;13.32;;
21780;SDS011;52576;53.614;9.894;2022-12-18T01:33:53;26.58;;;13.75;;
21780;SDS011;52576;53.614;9.894;2022-12-18T01:34:57;27.27;;;13.45;;
21780;SDS011;52576;53.614;9.894;2022-12-18T01:36:01;24.70;;;13.38;;
21780;SDS011;52576;53.614;9.894;2022-12-18T01:37:04;23.77;;;12.65;;
21780;SDS011;52576;53.614;9.894;2022-12-18T01:38:06;29.38;;;13.75;;
21780;SDS011;52576;53.614;9.894;2022-12-18T01:39:10;28.75;;;14.00;;
21780;SDS011;52576;53.614;9.894;2022-12-18T01:40:15;26.60;;;14.43;;
21780;SDS011;52576;53.614;9.894;2022-12-18T01:41:19;27.70;;;13.52;;
21780;SDS011;52576;53.614;9.894;2022-12-18T01:42:24;27.83;;;14.27;;
21780;SDS011;52576;53.614;9.894;2022-12-18T01:43:46;23.77;;;13.85;;
21780;SDS011;52576;53.614;9.894;2022-12-18T01:44:58;21.95;;;12.95;;
21780;SDS011;52576;53.614;9.894;2022-12-18T01:46:09;26.75;;;13.13;;
21780;SDS011;52576;53.614;9.894;2022-12-18T01:47:12;32.30;;;13.48;;
21780;SDS011;52576;53.614;9.894;2022-12-18T01:48:18;24.27;;;13.55;;
21780;SDS011;52576;53.614;9.894;2022-12-18T01:49:20;27.15;;;14.23;;
21780;SDS011;52576;53.614;9.894;2022-12-18T01:50:24;28.98;;;13.20;;
21780;SDS011;52576;53.614;9.894;2022-12-18T01:51:30;26.88;;;13.93;;
21780;SDS011;52576;53.614;9.894;2022-12-18T01:52:33;22.60;;;13.07;;
21780;SDS011;52576;53.614;9.894;2022-12-18T01:53:37;25.95;;;12.85;;
21780;SDS011;52576;53.614;9.894;2022-12-18T01:54:43;28.92;;;13.15;;
21780;SDS011;52576;53.614;9.894;2022-12-18T01:55:46;24.52;;;13.00;;
21780;SDS011;52576;53.614;9.894;2022-12-18T01:56:52;27.00;;;13.27;;
21780;SDS011;52576;53.614;9.894;2022-12-18T01:57:56;26.80;;;13.63;;
21780;SDS011;52576;53.614;9.894;2022-12-18T01:59:02;24.40;;;13.02;;
21780;SDS011;52576;53.614;9.894;2022-12-18T02:00:08;21.45;;;12.57;;
21780;SDS011;52576;53.614;9.894;2022-12-18T02:01:15;26.13;;;13.40;;
21780;SDS011;52576;53.614;9.894;2022-12-18T02:02:18;26.15;;;13.25;;
21780;SDS011;52576;53.614;9.894;2022-12-18T02:03:24;21.75;;;11.85;;
21780;SDS011;52576;53.614;9.894;2022-12-18T02:04:27;23.73;;;12.75;;
21780;SDS011;52576;53.614;9.894;2022-12-18T02:05:38;25.40;;;12.57;;
21780;SDS011;52576;53.614;9.894;2022-12-18T02:06:46;30.00;;;12.82;;
21780;SDS011;52576;53.614;9.894;2022-12-18T02:07:56;25.70;;;12.63;;
21780;SDS011;52576;53.614;9.894;2022-12-18T02:09:07;27.95;;;12.60;;
21780;SDS011;52576;53.614;9.894;2022-12-18T02:10:15;22.98;;;12.38;;
21780;SDS011;52576;53.614;9.894;2022-12-18T02:11:29;22.23;;;12.52;;
21780;SDS011;52576;53.614;9.894;2022-12-18T02:12:43;25.83;;;12.63;;
21780;SDS011;52576;53.614;9.894;2022-12-18T02:13:52;26.50;;;12.85;;
21780;SDS011;52576;53.614;9.894;2022-12-18T02:15:01;25.13;;;12.35;;
21780;SDS011;52576;53.614;9.894;2022-12-18T02:16:14;27.02;;;12.73;;
21780;SDS011;52576;53.614;9.894;2022-12-18T02:17:25;23.52;;;12.20;;
21780;SDS011;52576;53.614;9.894;2022-12-18T02:18:36;28.10;;;13.48;;
21780;SDS011;52576;53.614;9.894;2022-12-18T02:19:47;24.73;;;13.13;;
21780;SDS011;52576;53.614;9.894;2022-12-18T02:20:59;31.77;;;13.23;;
21780;SDS011;52576;53.614;9.894;2022-12-18T02:22:21;28.67;;;13.40;;
21780;SDS011;52576;53.614;9.894;2022-12-18T02:23:36;25.73;;;13.10;;
21780;SDS011;52576;53.614;9.894;2022-12-18T02:24:52;25.40;;;11.77;;
21780;SDS011;52576;53.614;9.894;2022-12-18T02:27:25;28.77;;;13.00;;
21780;SDS011;52576;53.614;9.894;2022-12-18T02:28:30;23.63;;;12.48;;
21780;SDS011;52576;53.614;9.894;2022-12-18T02:29:41;25.92;;;12.80;;
21780;SDS011;52576;53.614;9.894;2022-12-18T02:30:59;23.27;;;11.68;;
21780;SDS011;52576;53.614;9.894;2022-12-18T02:32:07;24.58;;;11.95;;
21780;SDS011;52576;53.614;9.894;2022-12-18T02:33:13;23.90;;;11.80;;
21780;SDS011;52576;53.614;9.894;2022-12-18T02:34:18;26.65;;;12.65;;
21780;SDS011;52576;53.614;9.894;2022-12-18T02:35:24;24.75;;;12.70;;
21780;SDS011;52576;53.614;9.894;2022-12-18T02:36:32;24.88;;;12.63;;
21780;SDS011;52576;53.614;9.894;2022-12-18T02:37:38;25.92;;;12.68;;
21780;SDS011;52576;53.614;9.894;2022-12-18T02:38:44;24.02;;;12.57;;
21780;SDS011;52576;53.614;9.894;2022-12-18T02:39:50;20.35;;;11.82;;
21780;SDS011;52576;53.614;9.894;2022-12-18T02:40:58;25.38;;;12.00;;
21780;SDS011;52576;53.614;9.894;2022-12-18T02:42:03;20.75;;;12.13;;
21780;SDS011;52576;53.614;9.894;2022-12-18T02:43:12;22.67;;;11.70;;
21780;SDS011;52576;53.614;9.894;2022-12-18T02:44:18;25.63;;;12.82;;
21780;SDS011;52576;53.614;9.894;2022-12-18T02:45:21;28.35;;;11.98;;
21780;SDS011;52576;53.614;9.894;2022-12-18T02:46:28;25.23;;;12.40;;
21780;SDS011;52576;53.614;9.894;2022-12-18T02:47:37;21.38;;;9.82;;
21780;SDS011;52576;53.614;9.894;2022-12-18T02:48:42;25.83;;;12.65;;
21780;SDS011;52576;53.614;9.894;2022-12-18T02:49:49;23.35;;;12.55;;
21780;SDS011;52576;53.614;9.894;2022-12-18T02:51:03;23.45;;;12.48;;
21780;SDS011;52576;53.614;9.894;2022-12-18T02:52:13;22.75;;;11.75;;
21780;SDS011;52576;53.614;9.894;2022-12-18T02:53:22;24.55;;;12.43;;
21780;SDS011;52576;53.614;9.894;2022-12-18T02:54:36;18.65;;;8.73;;
21780;SDS011;52576;53.614;9.894;2022-12-18T02:55:52;24.70;;;12.63;;
21780;SDS011;52576;53.614;9.894;2022-12-18T02:57:02;21.40;;;11.40;;
21780;SDS011;52576;53.614;9.894;2022-12-18T02:58:20;28.10;;;12.32;;
21780;SDS011;52576;53.614;9.894;2022-12-18T02:59:39;22.90;;;11.75;;
21780;SDS011;52576;53.614;9.894;2022-12-18T03:00:48;22.92;;;12.68;;
21780;SDS011;52576;53.614;9.894;2022-12-18T03:01:56;25.67;;;12.68;;
21780;SDS011;52576;53.614;9.894;2022-12-18T03:03:06;25.25;;;12.45;;
21780;SDS011;52576;53.614;9.894;2022-12-18T03:04:14;21.02;;;11.70;;
21780;SDS011;52576;53.614;9.894;2022-12-18T03:05:23;21.90;;;12.70;;
21780;SDS011;52576;53.614;9.894;2022-12-18T03:06:29;25.70;;;12.10;;
21780;SDS011;52576;53.614;9.894;2022-12-18T03:07:37;23.20;;;11.57;;
21780;SDS011;52576;53.614;9.894;2022-12-18T03:08:46;25.73;;;12.20;;
21780;SDS011;52576;53.614;9.894;2022-12-18T03:09:53;23.33;;;11.35;;
21780;SDS011;52576;53.614;9.894;2022-12-18T03:10:58;25.15;;;12.20;;
21780;SDS011;52576;53.614;9.894;2022-12-18T03:12:07;25.00;;;12.10;;
21780;SDS011;52576;53.614;9.894;2022-12-18T03:13:28;23.30;;;11.60;;
21780;SDS011;52576;53.614;9.894;2022-12-18T03:14:36;24.58;;;12.18;;
21780;SDS011;52576;53.614;9.894;2022-12-18T03:15:41;24.77;;;12.38;;
21780;SDS011;52576;53.614;9.894;2022-12-18T03:16:47;29.15;;;12.88;;
21780;SDS011;52576;53.614;9.894;2022-12-18T03:17:55;24.95;;;12.02;;
21780;SDS011;52576;53.614;9.894;2022-12-18T03:19:05;23.83;;;12.45;;
21780;SDS011;52576;53.614;9.894;2022-12-18T03:20:13;23.55;;;12.45;;
21780;SDS011;52576;53.614;9.894;2022-12-18T03:21:20;19.98;;;10.73;;
21780;SDS011;52576;53.614;9.894;2022-12-18T03:22:27;24.98;;;12.20;;
21780;SDS011;52576;53.614;9.894;2022-12-18T03:23:34;29.55;;;11.77;;
21780;SDS011;52576;53.614;9.894;2022-12-18T03:24:42;27.20;;;12.05;;
21780;SDS011;52576;53.614;9.894;2022-12-18T03:25:49;24.50;;;12.25;;
21780;SDS011;52576;53.614;9.894;2022-12-18T03:26:57;24.27;;;12.70;;
21780;SDS011;52576;53.614;9.894;2022-12-18T03:28:05;25.65;;;12.27;;
21780;SDS011;52576;53.614;9.894;2022-12-18T03:29:12;26.85;;;12.60;;
21780;SDS011;52576;53.614;9.894;2022-12-18T03:30:21;23.83;;;12.63;;
21780;SDS011;52576;53.614;9.894;2022-12-18T03:31:24;24.60;;;11.50;;
21780;SDS011;52576;53.614;9.894;2022-12-18T03:32:32;25.38;;;12.13;;
21780;SDS011;52576;53.614;9.894;2022-12-18T03:33:41;21.88;;;12.05;;
21780;SDS011;52576;53.614;9.894;2022-12-18T03:34:49;25.65;;;12.80;;
21780;SDS011;52576;53.614;9.894;2022-12-18T03:35:56;24.25;;;12.57;;
21780;SDS011;52576;53.614;9.894;2022-12-18T03:37:00;23.65;;;12.73;;
21780;SDS011;52576;53.614;9.894;2022-12-18T03:38:05;26.50;;;13.65;;
21780;SDS011;52576;53.614;9.894;2022-12-18T03:39:12;25.50;;;13.10;;
21780;SDS011;52576;53.614;9.894;2022-12-18T03:40:19;26.30;;;13.52;;
21780;SDS011;52576;53.614;9.894;2022-12-18T03:41:28;25.40;;;13.35;;
21780;SDS011;52576;53.614;9.894;2022-12-18T03:43:01;29.13;;;13.70;;
21780;SDS011;52576;53.614;9.894;2022-12-18T03:44:10;24.75;;;12.63;;
21780;SDS011;52576;53.614;9.894;2022-12-18T03:45:20;28.08;;;13.63;;
21780;SDS011;52576;53.614;9.894;2022-12-18T03:46:28;25.77;;;13.68;;
21780;SDS011;52576;53.614;9.894;2022-12-18T03:47:36;30.30;;;13.77;;
21780;SDS011;52576;53.614;9.894;2022-12-18T03:48:46;19.27;;;9.65;;
21780;SDS011;52576;53.614;9.894;2022-12-18T03:49:55;24.85;;;13.57;;
21780;SDS011;52576;53.614;9.894;2022-12-18T03:51:14;24.70;;;12.45;;
21780;SDS011;52576;53.614;9.894;2022-12-18T03:52:25;23.40;;;12.40;;
21780;SDS011;52576;53.614;9.894;2022-12-18T03:53:34;23.40;;;12.95;;
21780;SDS011;52576;53.614;9.894;2022-12-18T03:54:44;25.15;;;14.30;;
21780;SDS011;52576;53.614;9.894;2022-12-18T03:55:51;26.90;;;14.02;;
21780;SDS011;52576;53.614;9.894;2022-12-18T03:56:56;25.08;;;13.35;;
21780;SDS011;52576;53.614;9.894;2022-12-18T03:58:03;27.85;;;13.45;;
21780;SDS011;52576;53.614;9.894;2022-12-18T03:59:22;24.05;;;12.57;;
21780;SDS011;52576;53.614;9.894;2022-12-18T04:00:29;23.98;;;12.57;;
21780;SDS011;52576;53.614;9.894;2022-12-18T04:02:47;21.92;;;11.88;;
21780;SDS011;52576;53.614;9.894;2022-12-18T04:03:58;27.20;;;12.88;;
21780;SDS011;52576;53.614;9.894;2022-12-18T04:05:06;25.30;;;12.60;;
21780;SDS011;52576;53.614;9.894;2022-12-18T04:06:13;24.42;;;13.02;;
21780;SDS011;52576;53.614;9.894;2022-12-18T04:07:18;24.73;;;12.60;;
21780;SDS011;52576;53.614;9.894;2022-12-18T04:08:22;24.52;;;12.18;;
21780;SDS011;52576;53.614;9.894;2022-12-18T04:09:34;24.65;;;12.25;;
21780;SDS011;52576;53.614;9.894;2022-12-18T04:10:41;25.13;;;12.45;;
21780;SDS011;52576;53.614;9.894;2022-12-18T04:11:46;23.13;;;11.93;;
21780;SDS011;52576;53.614;9.894;2022-12-18T04:12:49;25.30;;;12.82;;
21780;SDS011;52576;53.614;9.894;2022-12-18T04:13:55;24.27;;;12.48;;
21780;SDS011;52576;53.614;9.894;2022-12-18T04:14:59;26.38;;;12.93;;
21780;SDS011;52576;53.614;9.894;2022-12-18T04:16:03;26.20;;;12.48;;
21780;SDS011;52576;53.614;9.894;2022-12-18T04:17:06;24.90;;;12.63;;
21780;SDS011;52576;53.614;9.894;2022-12-18T04:18:10;23.27;;;12.00;;
21780;SDS011;52576;53.614;9.894;2022-12-18T04:19:16;24.40;;;12.68;;
21780;SDS011;52576;53.614;9.894;2022-12-18T04:20:22;25.00;;;11.98;;
21780;SDS011;52576;53.614;9.894;2022-12-18T04:21:25;22.08;;;12.45;;
21780;SDS011;52576;53.614;9.894;2022-12-18T04:22:28;27.90;;;12.70;;
21780;SDS011;52576;53.614;9.894;2022-12-18T04:23:33;25.55;;;11.80;;
21780;SDS011;52576;53.614;9.894;2022-12-18T04:24:37;23.73;;;12.07;;
21780;SDS011;52576;53.614;9.894;2022-12-18T04:25:49;25.98;;;12.25;;
21780;SDS011;52576;53.614;9.894;2022-12-18T04:27:06;20.77;;;11.30;;
21780;SDS011;52576;53.614;9.894;2022-12-18T04:28:15;21.42;;;11.50;;
21780;SDS011;52576;53.614;9.894;2022-12-18T04:29:19;20.90;;;11.00;;
21780;SDS011;52576;53.614;9.894;2022-12-18T04:30:23;21.55;;;11.43;;
21780;SDS011;52576;53.614;9.894;2022-12-18T04:31:27;21.63;;;12.02;;
21780;SDS011;52576;53.614;9.894;2022-12-18T04:32:30;24.95;;;12.23;;
21780;SDS011;52576;53.614;9.894;2022-12-18T04:33:34;27.92;;;12.52;;
21780;SDS011;52576;53.614;9.894;2022-12-18T04:34:38;24.42;;;11.73;;
21780;SDS011;52576;53.614;9.894;2022-12-18T04:35:41;21.25;;;12.10;;
21780;SDS011;52576;53.614;9.894;2022-12-18T04:36:43;23.63;;;11.43;;
21780;SDS011;52576;53.614;9.894;2022-12-18T04:37:47;20.80;;;11.55;;
21780;SDS011;52576;53.614;9.894;2022-12-18T04:38:49;20.27;;;10.90;;
21780;SDS011;52576;53.614;9.894;2022-12-18T04:39:52;22.23;;;11.88;;
21780;SDS011;52576;53.614;9.894;2022-12-18T04:41:01;26.90;;;11.88;;
21780;SDS011;52576;53.614;9.894;2022-12-18T04:42:05;24.55;;;12.07;;
21780;SDS011;52576;53.614;9.894;2022-12-18T04:43:08;20.65;;;10.98;;
21780;SDS011;52576;53.614;9.894;2022-12-18T04:44:11;23.90;;;12.30;;
21780;SDS011;52576;53.614;9.894;2022-12-18T04:45:13;26.58;;;12.00;;
21780;SDS011;52576;53.614;9.894;2022-12-18T04:46:18;25.55;;;11.73;;
21780;SDS011;52576;53.614;9.894;2022-12-18T04:47:20;20.75;;;10.98;;
21780;SDS011;52576;53.614;9.894;2022-12-18T04:48:23;24.55;;;12.05;;
21780;SDS011;52576;53.614;9.894;2022-12-18T04:49:25;22.05;;;11.85;;
21780;SDS011;52576;53.614;9.894;2022-12-18T04:50:29;20.80;;;11.30;;
21780;SDS011;52576;53.614;9.894;2022-12-18T04:51:31;21.77;;;11.52;;
21780;SDS011;52576;53.614;9.894;2022-12-18T04:52:34;21.58;;;11.35;;
21780;SDS011;52576;53.614;9.894;2022-12-18T04:53:37;23.65;;;12.00;;
21780;SDS011;52576;53.614;9.894;2022-12-18T04:54:41;22.13;;;11.30;;
21780;SDS011;52576;53.614;9.894;2022-12-18T04:55:43;21.35;;;11.35;;
21780;SDS011;52576;53.614;9.894;2022-12-18T04:56:46;22.55;;;11.23;;
21780;SDS011;52576;53.614;9.894;2022-12-18T04:57:49;24.13;;;11.75;;
21780;SDS011;52576;53.614;9.894;2022-12-18T04:58:52;20.00;;;10.75;;
21780;SDS011;52576;53.614;9.894;2022-12-18T04:59:54;22.40;;;11.00;;
21780;SDS011;52576;53.614;9.894;2022-12-18T05:00:57;19.52;;;10.63;;
21780;SDS011;52576;53.614;9.894;2022-12-18T05:02:00;26.15;;;11.73;;
21780;SDS011;52576;53.614;9.894;2022-12-18T05:03:04;20.45;;;10.77;;
21780;SDS011;52576;53.614;9.894;2022-12-18T05:04:06;20.63;;;10.80;;
21780;SDS011;52576;53.614;9.894;2022-12-18T05:05:09;19.67;;;10.98;;
21780;SDS011;52576;53.614;9.894;2022-12-18T05:06:12;19.23;;;10.77;;
21780;SDS011;52576;53.614;9.894;2022-12-18T05:07:15;20.25;;;10.88;;
21780;SDS011;52576;53.614;9.894;2022-12-18T05:08:18;20.98;;;10.93;;
21780;SDS011;52576;53.614;9.894;2022-12-18T05:09:21;24.77;;;12.07;;
21780;SDS011;52576;53.614;9.894;2022-12-18T05:10:24;24.50;;;10.75;;
21780;SDS011;52576;53.614;9.894;2022-12-18T05:11:27;26.60;;;12.25;;
21780;SDS011;52576;53.614;9.894;2022-12-18T05:12:29;23.38;;;11.90;;
21780;SDS011;52576;53.614;9.894;2022-12-18T05:13:34;19.10;;;10.73;;
21780;SDS011;52576;53.614;9.894;2022-12-18T05:14:36;22.67;;;11.30;;
21780;SDS011;52576;53.614;9.894;2022-12-18T05:15:39;24.00;;;11.48;;
21780;SDS011;52576;53.614;9.894;2022-12-18T05:16:43;19.50;;;10.43;;
21780;SDS011;52576;53.614;9.894;2022-12-18T05:17:47;22.20;;;11.07;;
21780;SDS011;52576;53.614;9.894;2022-12-18T05:18:49;21.00;;;11.32;;
21780;SDS011;52576;53.614;9.894;2022-12-18T05:19:52;23.70;;;10.95;;
21780;SDS011;52576;53.614;9.894;2022-12-18T05:20:54;22.48;;;10.98;;
21780;SDS011;52576;53.614;9.894;2022-12-18T05:21:57;19.33;;;10.93;;
21780;SDS011;52576;53.614;9.894;2022-12-18T05:23:00;21.65;;;11.43;;
21780;SDS011;52576;53.614;9.894;2022-12-18T05:24:03;22.35;;;11.13;;
21780;SDS011;52576;53.614;9.894;2022-12-18T05:25:06;21.58;;;11.30;;
21780;SDS011;52576;53.614;9.894;2022-12-18T05:26:12;26.05;;;11.77;;
21780;SDS011;52576;53.614;9.894;2022-12-18T05:27:18;24.58;;;11.32;;
21780;SDS011;52576;53.614;9.894;2022-12-18T05:28:22;21.98;;;10.65;;
21780;SDS011;52576;53.614;9.894;2022-12-18T05:29:26;21.73;;;11.00;;
21780;SDS011;52576;53.614;9.894;2022-12-18T05:30:29;20.50;;;11.05;;
21780;SDS011;52576;53.614;9.894;2022-12-18T05:31:31;22.83;;;11.80;;
21780;SDS011;52576;53.614;9.894;2022-12-18T05:32:40;20.65;;;10.60;;
21780;SDS011;52576;53.614;9.894;2022-12-18T05:33:44;21.00;;;11.15;;
21780;SDS011;52576;53.614;9.894;2022-12-18T05:34:50;24.83;;;11.38;;
21780;SDS011;52576;53.614;9.894;2022-12-18T05:35:52;20.45;;;10.63;;
21780;SDS011;52576;53.614;9.894;2022-12-18T05:36:56;20.40;;;10.98;;
21780;SDS011;52576;53.614;9.894;2022-12-18T05:37:59;21.50;;;12.00;;
21780;SDS011;52576;53.614;9.894;2022-12-18T05:39:01;20.48;;;10.98;;
21780;SDS011;52576;53.614;9.894;2022-12-18T05:40:05;23.08;;;11.60;;
21780;SDS011;52576;53.614;9.894;2022-12-18T05:41:08;23.95;;;11.50;;
21780;SDS011;52576;53.614;9.894;2022-12-18T05:42:11;21.98;;;11.52;;
21780;SDS011;52576;53.614;9.894;2022-12-18T05:43:13;22.70;;;11.77;;
21780;SDS011;52576;53.614;9.894;2022-12-18T05:44:21;24.92;;;11.10;;
21780;SDS011;52576;53.614;9.894;2022-12-18T05:45:24;21.13;;;11.75;;
21780;SDS011;52576;53.614;9.894;2022-12-18T05:46:27;21.35;;;11.43;;
21780;SDS011;52576;53.614;9.894;2022-12-18T05:47:29;20.92;;;11.68;;
21780;SDS011;52576;53.614;9.894;2022-12-18T05:48:32;19.75;;;11.30;;
21780;SDS011;52576;53.614;9.894;2022-12-18T05:49:36;24.30;;;11.38;;
21780;SDS011;52576;53.614;9.894;2022-12-18T05:50:40;19.70;;;10.88;;
21780;SDS011;52576;53.614;9.894;2022-12-18T05:51:43;22.98;;;11.30;;
21780;SDS011;52576;53.614;9.894;2022-12-18T05:52:48;25.33;;;11.80;;
21780;SDS011;52576;53.614;9.894;2022-12-18T05:53:50;23.08;;;11.57;;
21780;SDS011;52576;53.614;9.894;2022-12-18T05:54:53;25.27;;;12.27;;
21780;SDS011;52576;53.614;9.894;2022-12-18T05:55:59;18.10;;;10.60;;
21780;SDS011;52576;53.614;9.894;2022-12-18T05:57:02;25.02;;;12.20;;
21780;SDS011;52576;53.614;9.894;2022-12-18T05:58:05;24.65;;;12.73;;
21780;SDS011;52576;53.614;9.894;2022-12-18T05:59:09;25.35;;;12.15;;
21780;SDS011;52576;53.614;9.894;2022-12-18T06:00:12;24.55;;;12.90;;
21780;SDS011;52576;53.614;9.894;2022-12-18T06:01:16;22.33;;;12.18;;
21780;SDS011;52576;53.614;9.894;2022-12-18T06:02:21;22.23;;;12.23;;
21780;SDS011;52576;53.614;9.894;2022-12-18T06:03:24;23.88;;;13.02;;
21780;SDS011;52576;53.614;9.894;2022-12-18T06:04:35;21.15;;;9.55;;
21780;SDS011;52576;53.614;9.894;2022-12-18T06:05:39;22.35;;;12.00;;
21780;SDS011;52576;53.614;9.894;2022-12-18T06:06:42;24.42;;;12.60;;
21780;SDS011;52576;53.614;9.894;2022-12-18T06:07:45;22.58;;;12.00;;
21780;SDS011;52576;53.614;9.894;2022-12-18T06:08:47;21.42;;;12.25;;
21780;SDS011;52576;53.614;9.894;2022-12-18T06:09:51;24.52;;;12.85;;
21780;SDS011;52576;53.614;9.894;2022-12-18T06:10:53;22.35;;;12.18;;
21780;SDS011;52576;53.614;9.894;2022-12-18T06:11:56;21.85;;;11.95;;
21780;SDS011;52576;53.614;9.894;2022-12-18T06:12:59;26.70;;;12.90;;
21780;SDS011;52576;53.614;9.894;2022-12-18T06:14:02;21.17;;;12.48;;
21780;SDS011;52576;53.614;9.894;2022-12-18T06:15:06;21.17;;;11.55;;
21780;SDS011;52576;53.614;9.894;2022-12-18T06:16:10;23.55;;;11.95;;
21780;SDS011;52576;53.614;9.894;2022-12-18T06:17:12;21.63;;;11.50;;
21780;SDS011;52576;53.614;9.894;2022-12-18T06:18:16;19.00;;;11.35;;
21780;SDS011;52576;53.614;9.894;2022-12-18T06:19:18;20.05;;;12.30;;
21780;SDS011;52576;53.614;9.894;2022-12-18T06:20:22;20.10;;;11.57;;
21780;SDS011;52576;53.614;9.894;2022-12-18T06:21:28;22.75;;;12.65;;
21780;SDS011;52576;53.614;9.894;2022-12-18T06:22:32;20.88;;;12.00;;
21780;SDS011;52576;53.614;9.894;2022-12-18T06:23:34;24.63;;;12.55;;
21780;SDS011;52576;53.614;9.894;2022-12-18T06:24:38;21.10;;;11.80;;
21780;SDS011;52576;53.614;9.894;2022-12-18T06:25:40;22.70;;;11.63;;